sensor_id;sensor_type;location;lat;lon;timestamp;P1;durP1;ratioP1;P2;durP2;ratioP2
15486;SDS011;7845;53.698;10.078;2024-02-15T00:02:02;13.67;;;12.33;;
15486;SDS011;7845;53.698;10.078;2024-02-15T00:04:27;16.00;;;13.33;;
15486;SDS011;7845;53.698;10.078;2024-02-15T00:06:53;14.75;;;11.50;;
15486;SDS011;7845;53.698;10.078;2024-02-15T00:09:20;6.00;;;5.00;;
15486;SDS011;7845;53.698;10.078;2024-02-15T00:11:46;12.00;;;10.25;;
15486;SDS011;7845;53.698;10.078;2024-02-15T00:14:11;13.33;;;13.33;;
15486;SDS011;7845;53.698;10.078;2024-02-15T00:16:37;12.33;;;11.33;;
15486;SDS011;7845;53.698;10.078;2024-02-15T00:19:02;10.67;;;10.33;;
15486;SDS011;7845;53.698;10.078;2024-02-15T00:21:28;11.67;;;11.33;;
15486;SDS011;7845;53.698;10.078;2024-02-15T00:23:53;16.33;;;13.33;;
15486;SDS011;7845;53.698;10.078;2024-02-15T00:26:21;8.00;;;7.00;;
15486;SDS011;7845;53.698;10.078;2024-02-15T00:28:46;10.00;;;8.33;;
15486;SDS011;7845;53.698;10.078;2024-02-15T00:31:12;12.00;;;10.33;;
15486;SDS011;7845;53.698;10.078;2024-02-15T00:33:37;12.67;;;11.67;;
15486;SDS011;7845;53.698;10.078;2024-02-15T00:36:03;12.00;;;11.00;;
15486;SDS011;7845;53.698;10.078;2024-02-15T00:38:29;10.75;;;10.75;;
15486;SDS011;7845;53.698;10.078;2024-02-15T00:40:56;11.75;;;11.75;;
15486;SDS011;7845;53.698;10.078;2024-02-15T00:43:21;13.33;;;13.33;;
15486;SDS011;7845;53.698;10.078;2024-02-15T00:45:47;11.33;;;7.00;;
15486;SDS011;7845;53.698;10.078;2024-02-15T00:48:12;11.00;;;10.67;;
15486;SDS011;7845;53.698;10.078;2024-02-15T00:50:37;10.00;;;10.00;;
15486;SDS011;7845;53.698;10.078;2024-02-15T00:53:03;12.00;;;11.00;;
15486;SDS011;7845;53.698;10.078;2024-02-15T00:55:28;11.67;;;10.67;;
15486;SDS011;7845;53.698;10.078;2024-02-15T00:57:54;14.67;;;12.00;;
15486;SDS011;7845;53.698;10.078;2024-02-15T01:00:19;11.33;;;11.00;;
15486;SDS011;7845;53.698;10.078;2024-02-15T01:02:45;12.25;;;10.00;;
15486;SDS011;7845;53.698;10.078;2024-02-15T01:05:10;13.33;;;12.67;;
15486;SDS011;7845;53.698;10.078;2024-02-15T01:07:36;10.00;;;10.00;;
15486;SDS011;7845;53.698;10.078;2024-02-15T01:10:01;12.00;;;11.33;;
15486;SDS011;7845;53.698;10.078;2024-02-15T01:12:28;15.25;;;13.50;;
15486;SDS011;7845;53.698;10.078;2024-02-15T01:14:53;15.00;;;13.67;;
15486;SDS011;7845;53.698;10.078;2024-02-15T01:17:18;17.67;;;15.00;;
15486;SDS011;7845;53.698;10.078;2024-02-15T01:19:44;21.67;;;19.00;;
15486;SDS011;7845;53.698;10.078;2024-02-15T01:22:09;14.67;;;14.00;;
15486;SDS011;7845;53.698;10.078;2024-02-15T01:24:35;14.00;;;12.00;;
15486;SDS011;7845;53.698;10.078;2024-02-15T01:27:00;16.00;;;15.67;;
15486;SDS011;7845;53.698;10.078;2024-02-15T01:29:26;19.33;;;17.00;;
15486;SDS011;7845;53.698;10.078;2024-02-15T01:31:51;14.33;;;13.33;;
15486;SDS011;7845;53.698;10.078;2024-02-15T01:34:17;11.00;;;11.00;;
15486;SDS011;7845;53.698;10.078;2024-02-15T01:36:42;14.33;;;13.33;;
15486;SDS011;7845;53.698;10.078;2024-02-15T01:39:07;16.67;;;15.33;;
15486;SDS011;7845;53.698;10.078;2024-02-15T01:41:33;13.33;;;12.33;;
15486;SDS011;7845;53.698;10.078;2024-02-15T01:43:58;16.00;;;16.00;;
15486;SDS011;7845;53.698;10.078;2024-02-15T01:46:23;11.33;;;11.00;;
15486;SDS011;7845;53.698;10.078;2024-02-15T01:48:49;13.25;;;13.25;;
15486;SDS011;7845;53.698;10.078;2024-02-15T01:51:15;17.67;;;17.00;;
15486;SDS011;7845;53.698;10.078;2024-02-15T01:53:42;16.00;;;14.67;;
15486;SDS011;7845;53.698;10.078;2024-02-15T01:56:07;17.00;;;16.33;;
15486;SDS011;7845;53.698;10.078;2024-02-15T01:58:33;15.67;;;14.33;;
15486;SDS011;7845;53.698;10.078;2024-02-15T02:00:59;11.50;;;11.25;;
15486;SDS011;7845;53.698;10.078;2024-02-15T02:03:26;15.00;;;13.25;;
15486;SDS011;7845;53.698;10.078;2024-02-15T02:05:52;15.00;;;14.00;;
15486;SDS011;7845;53.698;10.078;2024-02-15T02:08:18;11.67;;;10.33;;
15486;SDS011;7845;53.698;10.078;2024-02-15T02:10:43;13.67;;;12.67;;
15486;SDS011;7845;53.698;10.078;2024-02-15T02:13:10;20.75;;;18.00;;
15486;SDS011;7845;53.698;10.078;2024-02-15T02:15:36;21.67;;;19.67;;
15486;SDS011;7845;53.698;10.078;2024-02-15T02:18:03;20.67;;;19.00;;
15486;SDS011;7845;53.698;10.078;2024-02-15T02:20:33;20.25;;;18.50;;
15486;SDS011;7845;53.698;10.078;2024-02-15T02:23:15;20.25;;;18.25;;
15486;SDS011;7845;53.698;10.078;2024-02-15T02:25:43;15.25;;;15.25;;
15486;SDS011;7845;53.698;10.078;2024-02-15T02:28:11;20.25;;;17.50;;
15486;SDS011;7845;53.698;10.078;2024-02-15T02:30:37;12.75;;;10.75;;
15486;SDS011;7845;53.698;10.078;2024-02-15T02:33:09;21.50;;;17.00;;
15486;SDS011;7845;53.698;10.078;2024-02-15T02:35:35;19.50;;;19.00;;
15486;SDS011;7845;53.698;10.078;2024-02-15T02:38:02;18.67;;;16.67;;
15486;SDS011;7845;53.698;10.078;2024-02-15T02:40:27;20.00;;;19.00;;
15486;SDS011;7845;53.698;10.078;2024-02-15T02:42:53;18.33;;;18.33;;
15486;SDS011;7845;53.698;10.078;2024-02-15T02:45:26;18.50;;;17.50;;
15486;SDS011;7845;53.698;10.078;2024-02-15T02:47:51;16.00;;;15.33;;
15486;SDS011;7845;53.698;10.078;2024-02-15T02:50:17;20.50;;;18.75;;
15486;SDS011;7845;53.698;10.078;2024-02-15T02:52:44;18.50;;;17.00;;
15486;SDS011;7845;53.698;10.078;2024-02-15T02:55:09;22.33;;;20.00;;
15486;SDS011;7845;53.698;10.078;2024-02-15T02:57:36;18.50;;;15.25;;
15486;SDS011;7845;53.698;10.078;2024-02-15T03:00:03;18.50;;;17.75;;
15486;SDS011;7845;53.698;10.078;2024-02-15T03:02:45;18.25;;;16.50;;
15486;SDS011;7845;53.698;10.078;2024-02-15T03:05:11;19.25;;;16.00;;
15486;SDS011;7845;53.698;10.078;2024-02-15T03:07:36;19.33;;;17.67;;
15486;SDS011;7845;53.698;10.078;2024-02-15T03:10:03;16.00;;;16.00;;
15486;SDS011;7845;53.698;10.078;2024-02-15T03:12:33;19.75;;;16.25;;
15486;SDS011;7845;53.698;10.078;2024-02-15T03:15:00;21.75;;;16.50;;
15486;SDS011;7845;53.698;10.078;2024-02-15T03:17:26;22.00;;;16.75;;
15486;SDS011;7845;53.698;10.078;2024-02-15T03:19:52;15.67;;;13.33;;
15486;SDS011;7845;53.698;10.078;2024-02-15T03:22:17;20.00;;;16.33;;
15486;SDS011;7845;53.698;10.078;2024-02-15T03:24:42;12.67;;;12.67;;
15486;SDS011;7845;53.698;10.078;2024-02-15T03:27:08;17.33;;;15.00;;
15486;SDS011;7845;53.698;10.078;2024-02-15T03:29:35;15.25;;;13.25;;
15486;SDS011;7845;53.698;10.078;2024-02-15T03:32:00;16.67;;;15.67;;
15486;SDS011;7845;53.698;10.078;2024-02-15T03:34:26;14.25;;;12.25;;
15486;SDS011;7845;53.698;10.078;2024-02-15T03:36:51;18.67;;;16.00;;
15486;SDS011;7845;53.698;10.078;2024-02-15T03:39:19;16.00;;;16.00;;
15486;SDS011;7845;53.698;10.078;2024-02-15T03:41:44;16.00;;;15.50;;
15486;SDS011;7845;53.698;10.078;2024-02-15T03:44:11;16.33;;;14.00;;
15486;SDS011;7845;53.698;10.078;2024-02-15T03:46:37;13.75;;;12.25;;
15486;SDS011;7845;53.698;10.078;2024-02-15T03:49:02;12.33;;;12.33;;
15486;SDS011;7845;53.698;10.078;2024-02-15T03:51:27;17.00;;;14.33;;
15486;SDS011;7845;53.698;10.078;2024-02-15T03:53:52;15.00;;;15.00;;
15486;SDS011;7845;53.698;10.078;2024-02-15T03:56:18;18.33;;;16.00;;
15486;SDS011;7845;53.698;10.078;2024-02-15T03:58:46;16.50;;;13.75;;
15486;SDS011;7845;53.698;10.078;2024-02-15T04:01:11;20.00;;;17.33;;
15486;SDS011;7845;53.698;10.078;2024-02-15T04:03:38;19.25;;;17.00;;
15486;SDS011;7845;53.698;10.078;2024-02-15T04:06:04;11.75;;;11.25;;
15486;SDS011;7845;53.698;10.078;2024-02-15T04:08:30;11.00;;;9.67;;
15486;SDS011;7845;53.698;10.078;2024-02-15T04:10:55;16.67;;;15.67;;
15486;SDS011;7845;53.698;10.078;2024-02-15T04:13:22;19.50;;;16.50;;
15486;SDS011;7845;53.698;10.078;2024-02-15T04:15:48;20.67;;;18.67;;
15486;SDS011;7845;53.698;10.078;2024-02-15T04:18:15;18.25;;;17.00;;
15486;SDS011;7845;53.698;10.078;2024-02-15T04:20:41;16.67;;;16.00;;
15486;SDS011;7845;53.698;10.078;2024-02-15T04:23:10;17.00;;;14.50;;
15486;SDS011;7845;53.698;10.078;2024-02-15T04:25:36;19.00;;;17.25;;
15486;SDS011;7845;53.698;10.078;2024-02-15T04:28:01;17.00;;;16.00;;
15486;SDS011;7845;53.698;10.078;2024-02-15T04:30:29;15.50;;;14.75;;
15486;SDS011;7845;53.698;10.078;2024-02-15T04:32:55;16.00;;;12.50;;
15486;SDS011;7845;53.698;10.078;2024-02-15T04:35:20;15.67;;;14.00;;
15486;SDS011;7845;53.698;10.078;2024-02-15T04:37:46;21.25;;;17.75;;
15486;SDS011;7845;53.698;10.078;2024-02-15T04:40:12;18.25;;;17.00;;
15486;SDS011;7845;53.698;10.078;2024-02-15T04:42:38;15.67;;;12.67;;
15486;SDS011;7845;53.698;10.078;2024-02-15T04:45:05;16.75;;;14.75;;
15486;SDS011;7845;53.698;10.078;2024-02-15T04:47:37;18.00;;;16.50;;
15486;SDS011;7845;53.698;10.078;2024-02-15T04:50:03;23.33;;;18.33;;
15486;SDS011;7845;53.698;10.078;2024-02-15T04:52:31;15.50;;;15.25;;
15486;SDS011;7845;53.698;10.078;2024-02-15T04:54:56;22.00;;;17.67;;
15486;SDS011;7845;53.698;10.078;2024-02-15T04:57:23;23.75;;;20.75;;
15486;SDS011;7845;53.698;10.078;2024-02-15T04:59:53;18.75;;;18.00;;
15486;SDS011;7845;53.698;10.078;2024-02-15T05:02:19;9.25;;;7.75;;
15486;SDS011;7845;53.698;10.078;2024-02-15T05:04:44;17.33;;;15.33;;
15486;SDS011;7845;53.698;10.078;2024-02-15T05:07:10;16.67;;;16.00;;
15486;SDS011;7845;53.698;10.078;2024-02-15T05:09:35;17.00;;;16.00;;
15486;SDS011;7845;53.698;10.078;2024-02-15T05:12:01;18.33;;;17.00;;
15486;SDS011;7845;53.698;10.078;2024-02-15T05:14:27;20.50;;;19.75;;
15486;SDS011;7845;53.698;10.078;2024-02-15T05:16:53;17.33;;;17.33;;
15486;SDS011;7845;53.698;10.078;2024-02-15T05:19:18;19.67;;;18.33;;
15486;SDS011;7845;53.698;10.078;2024-02-15T05:21:44;19.00;;;17.00;;
15486;SDS011;7845;53.698;10.078;2024-02-15T05:24:12;13.75;;;13.75;;
15486;SDS011;7845;53.698;10.078;2024-02-15T05:26:41;20.00;;;17.50;;
15486;SDS011;7845;53.698;10.078;2024-02-15T05:29:07;15.50;;;13.50;;
15486;SDS011;7845;53.698;10.078;2024-02-15T05:31:34;13.00;;;12.50;;
15486;SDS011;7845;53.698;10.078;2024-02-15T05:34:03;14.25;;;13.75;;
15486;SDS011;7845;53.698;10.078;2024-02-15T05:36:30;14.00;;;12.25;;
15486;SDS011;7845;53.698;10.078;2024-02-15T05:38:56;18.67;;;17.00;;
15486;SDS011;7845;53.698;10.078;2024-02-15T05:41:22;15.25;;;14.25;;
15486;SDS011;7845;53.698;10.078;2024-02-15T05:43:47;19.33;;;16.33;;
15486;SDS011;7845;53.698;10.078;2024-02-15T05:46:14;19.00;;;17.00;;
15486;SDS011;7845;53.698;10.078;2024-02-15T05:48:40;17.00;;;15.50;;
15486;SDS011;7845;53.698;10.078;2024-02-15T05:51:06;18.33;;;17.00;;
15486;SDS011;7845;53.698;10.078;2024-02-15T05:53:33;16.25;;;15.75;;
15486;SDS011;7845;53.698;10.078;2024-02-15T05:56:04;19.25;;;17.25;;
15486;SDS011;7845;53.698;10.078;2024-02-15T05:58:31;16.50;;;14.50;;
15486;SDS011;7845;53.698;10.078;2024-02-15T06:00:58;24.25;;;17.25;;
15486;SDS011;7845;53.698;10.078;2024-02-15T06:03:27;15.00;;;13.50;;
15486;SDS011;7845;53.698;10.078;2024-02-15T06:05:53;18.75;;;16.50;;
15486;SDS011;7845;53.698;10.078;2024-02-15T06:08:23;18.00;;;16.75;;
15486;SDS011;7845;53.698;10.078;2024-02-15T06:10:51;15.75;;;14.75;;
15486;SDS011;7845;53.698;10.078;2024-02-15T06:13:17;22.25;;;17.75;;
15486;SDS011;7845;53.698;10.078;2024-02-15T06:15:43;16.67;;;13.33;;
15486;SDS011;7845;53.698;10.078;2024-02-15T06:18:08;17.33;;;16.67;;
15486;SDS011;7845;53.698;10.078;2024-02-15T06:20:37;22.50;;;20.50;;
15486;SDS011;7845;53.698;10.078;2024-02-15T06:23:04;17.00;;;15.50;;
15486;SDS011;7845;53.698;10.078;2024-02-15T06:25:32;19.75;;;17.75;;
15486;SDS011;7845;53.698;10.078;2024-02-15T06:27:57;19.00;;;17.00;;
15486;SDS011;7845;53.698;10.078;2024-02-15T06:30:27;21.25;;;17.50;;
15486;SDS011;7845;53.698;10.078;2024-02-15T06:33:11;17.00;;;16.50;;
15486;SDS011;7845;53.698;10.078;2024-02-15T06:35:55;17.00;;;15.75;;
15486;SDS011;7845;53.698;10.078;2024-02-15T06:38:39;13.50;;;11.25;;
15486;SDS011;7845;53.698;10.078;2024-02-15T06:41:22;16.50;;;16.00;;
15486;SDS011;7845;53.698;10.078;2024-02-15T06:43:48;24.50;;;18.00;;
15486;SDS011;7845;53.698;10.078;2024-02-15T06:46:14;15.67;;;14.00;;
15486;SDS011;7845;53.698;10.078;2024-02-15T06:48:41;14.33;;;12.33;;
15486;SDS011;7845;53.698;10.078;2024-02-15T06:51:11;20.00;;;17.50;;
15486;SDS011;7845;53.698;10.078;2024-02-15T06:53:39;17.75;;;16.50;;
15486;SDS011;7845;53.698;10.078;2024-02-15T06:56:05;23.33;;;18.33;;
15486;SDS011;7845;53.698;10.078;2024-02-15T06:58:30;21.33;;;19.67;;
15486;SDS011;7845;53.698;10.078;2024-02-15T07:00:56;22.33;;;20.00;;
15486;SDS011;7845;53.698;10.078;2024-02-15T07:03:21;18.33;;;18.33;;
15486;SDS011;7845;53.698;10.078;2024-02-15T07:05:47;21.25;;;20.25;;
15486;SDS011;7845;53.698;10.078;2024-02-15T07:08:13;18.75;;;17.50;;
15486;SDS011;7845;53.698;10.078;2024-02-15T07:10:39;21.67;;;19.00;;
15486;SDS011;7845;53.698;10.078;2024-02-15T07:13:04;24.33;;;22.00;;
15486;SDS011;7845;53.698;10.078;2024-02-15T07:15:31;25.25;;;25.00;;
15486;SDS011;7845;53.698;10.078;2024-02-15T07:17:58;22.25;;;21.00;;
15486;SDS011;7845;53.698;10.078;2024-02-15T07:20:23;20.67;;;20.00;;
15486;SDS011;7845;53.698;10.078;2024-02-15T07:22:49;29.67;;;23.67;;
15486;SDS011;7845;53.698;10.078;2024-02-15T07:25:14;31.00;;;24.67;;
15486;SDS011;7845;53.698;10.078;2024-02-15T07:27:40;27.33;;;26.00;;
15486;SDS011;7845;53.698;10.078;2024-02-15T07:30:06;27.67;;;25.33;;
15486;SDS011;7845;53.698;10.078;2024-02-15T07:32:33;21.75;;;21.25;;
15486;SDS011;7845;53.698;10.078;2024-02-15T07:35:00;22.50;;;22.25;;
15486;SDS011;7845;53.698;10.078;2024-02-15T07:37:26;26.50;;;25.25;;
15486;SDS011;7845;53.698;10.078;2024-02-15T07:39:51;30.00;;;23.67;;
15486;SDS011;7845;53.698;10.078;2024-02-15T07:42:17;30.75;;;26.25;;
15486;SDS011;7845;53.698;10.078;2024-02-15T07:44:43;27.67;;;23.33;;
15486;SDS011;7845;53.698;10.078;2024-02-15T07:47:08;17.00;;;16.00;;
15486;SDS011;7845;53.698;10.078;2024-02-15T07:49:35;25.25;;;24.25;;
15486;SDS011;7845;53.698;10.078;2024-02-15T07:52:03;21.50;;;19.50;;
15486;SDS011;7845;53.698;10.078;2024-02-15T07:54:29;21.33;;;20.67;;
15486;SDS011;7845;53.698;10.078;2024-02-15T07:56:55;19.75;;;16.50;;
15486;SDS011;7845;53.698;10.078;2024-02-15T07:59:23;20.00;;;18.50;;
15486;SDS011;7845;53.698;10.078;2024-02-15T08:01:48;19.00;;;17.00;;
15486;SDS011;7845;53.698;10.078;2024-02-15T08:04:15;14.75;;;13.50;;
15486;SDS011;7845;53.698;10.078;2024-02-15T08:06:42;20.50;;;18.50;;
15486;SDS011;7845;53.698;10.078;2024-02-15T08:09:08;16.75;;;14.00;;
15486;SDS011;7845;53.698;10.078;2024-02-15T08:11:38;18.00;;;16.25;;
15486;SDS011;7845;53.698;10.078;2024-02-15T08:14:05;16.75;;;13.75;;
15486;SDS011;7845;53.698;10.078;2024-02-15T08:16:33;18.75;;;16.25;;
15486;SDS011;7845;53.698;10.078;2024-02-15T08:18:59;13.00;;;13.00;;
15486;SDS011;7845;53.698;10.078;2024-02-15T08:21:29;14.25;;;13.25;;
15486;SDS011;7845;53.698;10.078;2024-02-15T08:24:01;14.25;;;13.00;;
15486;SDS011;7845;53.698;10.078;2024-02-15T08:26:33;13.50;;;12.25;;
15486;SDS011;7845;53.698;10.078;2024-02-15T08:29:01;12.00;;;11.00;;
15486;SDS011;7845;53.698;10.078;2024-02-15T08:31:28;11.75;;;10.75;;
15486;SDS011;7845;53.698;10.078;2024-02-15T08:33:53;14.00;;;11.00;;
15486;SDS011;7845;53.698;10.078;2024-02-15T08:36:18;12.33;;;11.33;;
15486;SDS011;7845;53.698;10.078;2024-02-15T08:38:44;16.00;;;13.00;;
15486;SDS011;7845;53.698;10.078;2024-02-15T08:41:09;14.67;;;13.33;;
15486;SDS011;7845;53.698;10.078;2024-02-15T08:43:37;14.25;;;13.00;;
15486;SDS011;7845;53.698;10.078;2024-02-15T08:46:05;14.50;;;12.00;;
15486;SDS011;7845;53.698;10.078;2024-02-15T08:48:31;14.75;;;13.25;;
15486;SDS011;7845;53.698;10.078;2024-02-15T08:50:57;14.33;;;13.33;;
15486;SDS011;7845;53.698;10.078;2024-02-15T08:53:22;19.33;;;17.33;;
15486;SDS011;7845;53.698;10.078;2024-02-15T08:55:49;16.00;;;12.75;;
15486;SDS011;7845;53.698;10.078;2024-02-15T08:58:15;15.33;;;14.00;;
15486;SDS011;7845;53.698;10.078;2024-02-15T09:00:40;14.67;;;14.33;;
15486;SDS011;7845;53.698;10.078;2024-02-15T09:03:09;18.25;;;17.00;;
15486;SDS011;7845;53.698;10.078;2024-02-15T09:05:35;13.33;;;12.00;;
15486;SDS011;7845;53.698;10.078;2024-02-15T09:08:00;21.00;;;17.00;;
15486;SDS011;7845;53.698;10.078;2024-02-15T09:10:25;17.00;;;15.00;;
15486;SDS011;7845;53.698;10.078;2024-02-15T09:12:52;23.50;;;18.25;;
15486;SDS011;7845;53.698;10.078;2024-02-15T09:15:17;17.67;;;15.67;;
15486;SDS011;7845;53.698;10.078;2024-02-15T09:17:43;21.67;;;18.67;;
15486;SDS011;7845;53.698;10.078;2024-02-15T09:20:11;17.25;;;17.00;;
15486;SDS011;7845;53.698;10.078;2024-02-15T09:22:43;19.00;;;15.50;;
15486;SDS011;7845;53.698;10.078;2024-02-15T09:25:13;18.00;;;15.75;;
15486;SDS011;7845;53.698;10.078;2024-02-15T09:27:39;16.75;;;13.75;;
15486;SDS011;7845;53.698;10.078;2024-02-15T09:30:04;12.80;;;11.80;;
15486;SDS011;7845;53.698;10.078;2024-02-15T09:32:35;13.25;;;11.50;;
15486;SDS011;7845;53.698;10.078;2024-02-15T09:35:06;14.00;;;12.80;;
15486;SDS011;7845;53.698;10.078;2024-02-15T09:37:33;11.00;;;9.80;;
15486;SDS011;7845;53.698;10.078;2024-02-15T09:40:03;11.40;;;10.80;;
15486;SDS011;7845;53.698;10.078;2024-02-15T09:42:32;17.20;;;15.80;;
15486;SDS011;7845;53.698;10.078;2024-02-15T09:45:01;14.00;;;13.20;;
15486;SDS011;7845;53.698;10.078;2024-02-15T09:47:29;16.40;;;15.20;;
15486;SDS011;7845;53.698;10.078;2024-02-15T09:50:00;9.00;;;8.00;;
15486;SDS011;7845;53.698;10.078;2024-02-15T09:52:26;14.33;;;14.00;;
15486;SDS011;7845;53.698;10.078;2024-02-15T09:54:56;15.00;;;14.00;;
15486;SDS011;7845;53.698;10.078;2024-02-15T09:57:23;13.25;;;13.25;;
15486;SDS011;7845;53.698;10.078;2024-02-15T09:59:49;13.00;;;12.00;;
15486;SDS011;7845;53.698;10.078;2024-02-15T10:02:14;18.00;;;13.00;;
15486;SDS011;7845;53.698;10.078;2024-02-15T10:04:40;13.33;;;11.67;;
15486;SDS011;7845;53.698;10.078;2024-02-15T10:07:06;15.00;;;12.80;;
15486;SDS011;7845;53.698;10.078;2024-02-15T10:09:33;14.00;;;13.40;;
15486;SDS011;7845;53.698;10.078;2024-02-15T10:12:02;13.00;;;13.00;;
15486;SDS011;7845;53.698;10.078;2024-02-15T10:14:28;14.75;;;13.50;;
15486;SDS011;7845;53.698;10.078;2024-02-15T10:16:55;17.40;;;14.00;;
15486;SDS011;7845;53.698;10.078;2024-02-15T10:19:21;17.75;;;15.25;;
15486;SDS011;7845;53.698;10.078;2024-02-15T10:21:54;16.75;;;13.75;;
15486;SDS011;7845;53.698;10.078;2024-02-15T10:24:23;13.20;;;12.80;;
15486;SDS011;7845;53.698;10.078;2024-02-15T10:26:49;11.00;;;10.80;;
15486;SDS011;7845;53.698;10.078;2024-02-15T10:29:15;12.25;;;10.25;;
15486;SDS011;7845;53.698;10.078;2024-02-15T10:31:52;16.00;;;14.00;;
15486;SDS011;7845;53.698;10.078;2024-02-15T10:34:18;13.40;;;12.20;;
15486;SDS011;7845;53.698;10.078;2024-02-15T10:36:45;8.00;;;7.60;;
15486;SDS011;7845;53.698;10.078;2024-02-15T10:39:11;13.00;;;12.75;;
15486;SDS011;7845;53.698;10.078;2024-02-15T10:41:45;13.00;;;11.60;;
15486;SDS011;7845;53.698;10.078;2024-02-15T10:46:47;14.25;;;13.25;;
15486;SDS011;7845;53.698;10.078;2024-02-15T10:51:44;19.75;;;16.75;;
15486;SDS011;7845;53.698;10.078;2024-02-15T10:54:15;16.25;;;15.00;;
15486;SDS011;7845;53.698;10.078;2024-02-15T10:56:51;19.25;;;17.25;;
15486;SDS011;7845;53.698;10.078;2024-02-15T10:59:24;19.50;;;18.00;;
15486;SDS011;7845;53.698;10.078;2024-02-15T11:01:55;20.75;;;20.00;;
15486;SDS011;7845;53.698;10.078;2024-02-15T11:04:24;22.50;;;21.25;;
15486;SDS011;7845;53.698;10.078;2024-02-15T11:06:57;21.50;;;18.50;;
15486;SDS011;7845;53.698;10.078;2024-02-15T11:09:23;21.25;;;20.50;;
15486;SDS011;7845;53.698;10.078;2024-02-15T11:11:53;25.00;;;21.75;;
15486;SDS011;7845;53.698;10.078;2024-02-15T11:16:50;21.00;;;20.75;;
15486;SDS011;7845;53.698;10.078;2024-02-15T11:19:39;22.33;;;20.33;;
15486;SDS011;7845;53.698;10.078;2024-02-15T11:22:09;19.50;;;18.75;;
15486;SDS011;7845;53.698;10.078;2024-02-15T11:24:36;19.75;;;19.00;;
15486;SDS011;7845;53.698;10.078;2024-02-15T11:27:02;25.75;;;23.25;;
15486;SDS011;7845;53.698;10.078;2024-02-15T11:35:24;22.00;;;19.75;;
15486;SDS011;7845;53.698;10.078;2024-02-15T11:37:56;22.00;;;20.50;;
15486;SDS011;7845;53.698;10.078;2024-02-15T11:40:27;23.50;;;21.50;;
15486;SDS011;7845;53.698;10.078;2024-02-15T11:43:00;24.00;;;20.75;;
15486;SDS011;7845;53.698;10.078;2024-02-15T11:45:26;23.00;;;21.75;;
15486;SDS011;7845;53.698;10.078;2024-02-15T11:47:57;22.00;;;21.50;;
15486;SDS011;7845;53.698;10.078;2024-02-15T11:50:26;20.67;;;19.33;;
15486;SDS011;7845;53.698;10.078;2024-02-15T11:53:04;28.50;;;23.00;;
15486;SDS011;7845;53.698;10.078;2024-02-15T11:55:30;26.25;;;22.25;;
15486;SDS011;7845;53.698;10.078;2024-02-15T11:57:58;25.75;;;24.00;;
15486;SDS011;7845;53.698;10.078;2024-02-15T12:00:41;22.00;;;21.00;;
15486;SDS011;7845;53.698;10.078;2024-02-15T12:03:25;26.75;;;26.25;;
15486;SDS011;7845;53.698;10.078;2024-02-15T12:06:10;22.25;;;20.25;;
15486;SDS011;7845;53.698;10.078;2024-02-15T12:08:54;24.75;;;22.75;;
15486;SDS011;7845;53.698;10.078;2024-02-15T12:11:39;26.25;;;25.00;;
15486;SDS011;7845;53.698;10.078;2024-02-15T12:14:23;28.00;;;26.00;;
15486;SDS011;7845;53.698;10.078;2024-02-15T12:17:08;26.75;;;26.25;;
15486;SDS011;7845;53.698;10.078;2024-02-15T12:19:54;23.25;;;21.75;;
15486;SDS011;7845;53.698;10.078;2024-02-15T12:22:24;27.75;;;24.50;;
15486;SDS011;7845;53.698;10.078;2024-02-15T12:24:53;23.25;;;21.75;;
15486;SDS011;7845;53.698;10.078;2024-02-15T12:27:19;21.75;;;20.50;;
15486;SDS011;7845;53.698;10.078;2024-02-15T12:29:45;30.00;;;25.50;;
15486;SDS011;7845;53.698;10.078;2024-02-15T12:32:23;29.25;;;24.25;;
15486;SDS011;7845;53.698;10.078;2024-02-15T12:34:50;27.75;;;24.00;;
15486;SDS011;7845;53.698;10.078;2024-02-15T12:37:20;23.75;;;20.50;;
15486;SDS011;7845;53.698;10.078;2024-02-15T12:39:47;23.75;;;22.00;;
15486;SDS011;7845;53.698;10.078;2024-02-15T12:42:14;21.00;;;19.75;;
15486;SDS011;7845;53.698;10.078;2024-02-15T12:44:48;27.67;;;24.00;;
15486;SDS011;7845;53.698;10.078;2024-02-15T12:47:17;26.50;;;22.75;;
15486;SDS011;7845;53.698;10.078;2024-02-15T12:49:47;19.25;;;18.00;;
15486;SDS011;7845;53.698;10.078;2024-02-15T12:52:34;21.00;;;18.50;;
15486;SDS011;7845;53.698;10.078;2024-02-15T12:55:10;24.50;;;20.25;;
15486;SDS011;7845;53.698;10.078;2024-02-15T12:57:36;19.50;;;18.50;;
15486;SDS011;7845;53.698;10.078;2024-02-15T13:00:02;17.50;;;15.75;;
15486;SDS011;7845;53.698;10.078;2024-02-15T13:02:37;22.80;;;20.00;;
15486;SDS011;7845;53.698;10.078;2024-02-15T13:05:04;16.50;;;16.50;;
15486;SDS011;7845;53.698;10.078;2024-02-15T13:07:30;18.25;;;15.75;;
15486;SDS011;7845;53.698;10.078;2024-02-15T13:09:56;19.00;;;17.67;;
15486;SDS011;7845;53.698;10.078;2024-02-15T13:12:21;16.33;;;16.33;;
15486;SDS011;7845;53.698;10.078;2024-02-15T13:14:46;20.25;;;19.00;;
15486;SDS011;7845;53.698;10.078;2024-02-15T13:17:12;16.25;;;15.75;;
15486;SDS011;7845;53.698;10.078;2024-02-15T13:19:37;15.75;;;13.75;;
15486;SDS011;7845;53.698;10.078;2024-02-15T13:22:03;18.00;;;16.50;;
15486;SDS011;7845;53.698;10.078;2024-02-15T13:24:28;19.33;;;16.67;;
15486;SDS011;7845;53.698;10.078;2024-02-15T13:26:53;20.33;;;19.00;;
15486;SDS011;7845;53.698;10.078;2024-02-15T13:29:20;19.50;;;16.50;;
15486;SDS011;7845;53.698;10.078;2024-02-15T13:31:46;15.00;;;14.25;;
15486;SDS011;7845;53.698;10.078;2024-02-15T13:34:11;16.67;;;14.00;;
15486;SDS011;7845;53.698;10.078;2024-02-15T13:36:37;15.00;;;14.50;;
15486;SDS011;7845;53.698;10.078;2024-02-15T13:39:02;16.00;;;15.25;;
15486;SDS011;7845;53.698;10.078;2024-02-15T13:41:29;14.80;;;14.80;;
15486;SDS011;7845;53.698;10.078;2024-02-15T13:43:55;17.50;;;14.75;;
15486;SDS011;7845;53.698;10.078;2024-02-15T13:46:20;13.00;;;9.33;;
15486;SDS011;7845;53.698;10.078;2024-02-15T13:48:45;13.00;;;11.00;;
15486;SDS011;7845;53.698;10.078;2024-02-15T13:51:11;15.00;;;14.00;;
15486;SDS011;7845;53.698;10.078;2024-02-15T13:53:36;14.00;;;12.75;;
15486;SDS011;7845;53.698;10.078;2024-02-15T13:56:02;15.00;;;14.75;;
15486;SDS011;7845;53.698;10.078;2024-02-15T13:58:27;11.75;;;11.00;;
15486;SDS011;7845;53.698;10.078;2024-02-15T14:00:53;13.33;;;13.33;;
15486;SDS011;7845;53.698;10.078;2024-02-15T14:03:18;17.00;;;16.33;;
15486;SDS011;7845;53.698;10.078;2024-02-15T14:05:46;15.75;;;14.50;;
15486;SDS011;7845;53.698;10.078;2024-02-15T14:08:13;12.75;;;12.25;;
15486;SDS011;7845;53.698;10.078;2024-02-15T14:10:38;14.33;;;13.33;;
15486;SDS011;7845;53.698;10.078;2024-02-15T14:13:04;12.33;;;12.33;;
15486;SDS011;7845;53.698;10.078;2024-02-15T14:15:34;14.25;;;13.00;;
15486;SDS011;7845;53.698;10.078;2024-02-15T14:18:03;11.80;;;11.00;;
15486;SDS011;7845;53.698;10.078;2024-02-15T14:20:29;12.40;;;10.60;;
15486;SDS011;7845;53.698;10.078;2024-02-15T14:22:54;15.00;;;14.67;;
15486;SDS011;7845;53.698;10.078;2024-02-15T14:25:23;12.00;;;10.80;;
15486;SDS011;7845;53.698;10.078;2024-02-15T14:27:50;15.50;;;15.00;;
15486;SDS011;7845;53.698;10.078;2024-02-15T14:30:15;7.00;;;6.00;;
15486;SDS011;7845;53.698;10.078;2024-02-15T14:32:59;13.50;;;13.00;;
15486;SDS011;7845;53.698;10.078;2024-02-15T14:35:25;18.00;;;14.00;;
15486;SDS011;7845;53.698;10.078;2024-02-15T14:37:51;13.33;;;13.33;;